createdAt,value
2024-02-04T00:01:18.142Z,99913.97
2024-02-04T00:06:38.922Z,99931.66
2024-02-04T00:12:04.683Z,99914.88
2024-02-04T00:17:31.050Z,99907.00
2024-02-04T00:22:51.964Z,99909.16
2024-02-04T00:28:13.096Z,99930.53
2024-02-04T00:33:34.366Z,99905.63
2024-02-04T00:38:55.446Z,99925.38
2024-02-04T00:44:16.122Z,99924.03
2024-02-04T00:49:37.312Z,99921.31
2024-02-04T00:54:58.150Z,99923.41
2024-02-04T01:00:19.481Z,99918.25
2024-02-04T01:05:40.812Z,99901.09
2024-02-04T01:11:01.863Z,99907.38
2024-02-04T01:16:22.552Z,99890.00
2024-02-04T01:21:45.385Z,99925.13
2024-02-04T01:27:06.801Z,99902.63
2024-02-04T01:32:28.169Z,99926.34
2024-02-04T01:37:50.046Z,99911.78
2024-02-04T01:43:11.098Z,99921.00
2024-02-04T01:48:32.159Z,99927.00
2024-02-04T01:53:53.490Z,99933.53
2024-02-04T01:59:14.735Z,99891.59
2024-02-04T02:04:36.298Z,99892.88
2024-02-04T02:09:57.796Z,99894.56
2024-02-04T02:15:28.127Z,99901.72
2024-02-04T02:21:12.728Z,99922.88
2024-02-04T02:26:34.825Z,99921.84
2024-02-04T02:31:56.374Z,99929.16
2024-02-04T02:37:23.581Z,99919.94
2024-02-04T02:42:47.159Z,99897.47
2024-02-04T02:48:10.001Z,99884.44
2024-02-04T02:53:30.879Z,99906.44
2024-02-04T02:58:51.900Z,99941.47
2024-02-04T03:04:13.072Z,99898.66
2024-02-04T03:09:34.226Z,99912.22
2024-02-04T03:14:55.071Z,99917.13
2024-02-04T03:20:16.192Z,99931.75
2024-02-04T03:25:37.581Z,99927.41
2024-02-04T03:30:58.473Z,99920.13
2024-02-04T03:36:26.775Z,99926.34
2024-02-04T03:41:48.197Z,99926.63
2024-02-04T03:47:09.229Z,99915.22
2024-02-04T03:52:30.498Z,99934.22
2024-02-04T03:57:52.841Z,99920.94
2024-02-04T04:03:13.884Z,99940.94
2024-02-04T04:08:35.282Z,99936.88
2024-02-04T04:13:56.074Z,99932.25
2024-02-04T04:19:16.931Z,99930.31
2024-02-04T04:24:39.483Z,99936.06
2024-02-04T04:30:00.755Z,99942.59
2024-02-04T04:35:22.190Z,99936.63
2024-02-04T04:40:42.936Z,99937.47
2024-02-04T04:46:04.767Z,99918.78
2024-02-04T04:51:26.016Z,99929.91
2024-02-04T04:56:46.942Z,99936.69
2024-02-04T05:02:07.669Z,99928.00
2024-02-04T05:07:28.640Z,99919.84
2024-02-04T05:12:49.611Z,99925.53
2024-02-04T05:18:10.902Z,99939.63
2024-02-04T05:23:32.029Z,99901.94
2024-02-04T05:28:53.071Z,99927.94
2024-02-04T05:34:14.407Z,99940.13
2024-02-04T05:39:35.975Z,99926.28
2024-02-04T05:44:56.806Z,99903.81
2024-02-04T05:50:18.268Z,99905.41
2024-02-04T05:55:40.081Z,99884.53
2024-02-04T06:01:00.822Z,99908.91
2024-02-04T06:06:21.807Z,99921.72
2024-02-04T06:11:46.203Z,99906.78
2024-02-04T06:17:09.366Z,99883.22
2024-02-04T06:22:30.191Z,99877.50
2024-02-04T06:27:50.934Z,99878.50
2024-02-04T06:33:12.108Z,99846.00
2024-02-04T06:38:33.261Z,99861.47
2024-02-04T06:43:53.922Z,99854.19
2024-02-04T06:49:19.373Z,99880.25
2024-02-04T06:54:40.892Z,99865.34
2024-02-04T07:00:02.254Z,99857.75
2024-02-04T07:05:23.785Z,99858.03
2024-02-04T07:10:44.521Z,99872.09
2024-02-04T07:16:05.872Z,99876.69
2024-02-04T07:21:27.378Z,99873.44
2024-02-04T07:26:48.129Z,99849.56
2024-02-04T07:32:08.938Z,99851.94
2024-02-04T07:37:29.862Z,99848.41
2024-02-04T07:42:50.810Z,99852.94
2024-02-04T07:48:12.802Z,99850.16
2024-02-04T07:53:33.795Z,99826.78
2024-02-04T07:58:54.982Z,99818.63
2024-02-04T08:04:16.815Z,99850.78
2024-02-04T08:09:37.824Z,99837.97
2024-02-04T08:14:58.641Z,99817.63
2024-02-04T08:20:19.683Z,99807.50
2024-02-04T08:25:43.177Z,99810.44
2024-02-04T08:31:04.496Z,99799.03
2024-02-04T08:36:26.233Z,99832.25
2024-02-04T08:41:47.167Z,99821.53
2024-02-04T08:47:11.677Z,99816.84
2024-02-04T08:52:33.109Z,99797.22
2024-02-04T08:57:54.581Z,99783.81
2024-02-04T09:03:15.697Z,99782.88
2024-02-04T09:08:37.137Z,99798.69
2024-02-04T09:13:57.963Z,99788.91
2024-02-04T09:19:19.326Z,99762.59
2024-02-04T09:24:40.539Z,99784.09
2024-02-04T09:30:01.802Z,99774.09
2024-02-04T09:35:23.496Z,99772.91
2024-02-04T09:40:44.905Z,99765.78
2024-02-04T09:46:06.829Z,99768.94
2024-02-04T09:51:27.760Z,99785.06
2024-02-04T09:56:48.943Z,99772.25
2024-02-04T10:02:09.826Z,99780.44
2024-02-04T10:07:31.406Z,99764.97
2024-02-04T10:12:52.895Z,99745.53
2024-02-04T10:18:13.680Z,99740.69
2024-02-04T10:23:34.611Z,99741.94
2024-02-04T10:28:55.365Z,99746.28
2024-02-04T10:34:16.670Z,99728.00
2024-02-04T10:39:37.726Z,99722.28
2024-02-04T10:45:00.286Z,99704.59
2024-02-04T10:50:22.591Z,99684.66
2024-02-04T10:55:44.493Z,99692.94
2024-02-04T11:01:05.461Z,99675.56
2024-02-04T11:06:28.105Z,99646.19
2024-02-04T11:11:49.623Z,99664.25
2024-02-04T11:17:48.608Z,99658.53
2024-02-04T11:23:38.123Z,99655.19
2024-02-04T11:28:59.255Z,99639.19
2024-02-04T11:34:20.742Z,99648.19
2024-02-04T11:39:52.474Z,99650.72
2024-02-04T11:45:14.989Z,99632.94
2024-02-04T11:50:36.823Z,99612.53
2024-02-04T11:55:58.839Z,99616.28
2024-02-04T12:01:23.650Z,99644.78
2024-02-04T12:06:45.153Z,99633.44
2024-02-04T12:12:06.840Z,99605.56
2024-02-04T12:17:28.125Z,99605.25
2024-02-04T12:22:50.474Z,99609.81
2024-02-04T12:28:11.560Z,99589.34
2024-02-04T12:33:32.750Z,99622.06
2024-02-04T12:38:58.027Z,99619.13
2024-02-04T12:44:19.429Z,99581.06
2024-02-04T12:49:40.391Z,99577.50
2024-02-04T12:55:01.694Z,99578.25
2024-02-04T13:00:22.484Z,99558.53
2024-02-04T13:05:43.249Z,99564.28
2024-02-04T13:11:04.157Z,99561.06
2024-02-04T13:16:26.548Z,99548.06
2024-02-04T13:21:47.638Z,99553.00
2024-02-04T13:27:09.169Z,99523.63
2024-02-04T13:32:30.315Z,99540.38
2024-02-04T13:37:53.119Z,99516.34
2024-02-04T13:43:14.340Z,99533.31
2024-02-04T13:48:35.703Z,99505.56
2024-02-04T13:53:56.684Z,99529.97
2024-02-04T13:59:17.595Z,99540.25
2024-02-04T14:04:38.587Z,99509.75
2024-02-04T14:09:59.763Z,99535.91
2024-02-04T14:15:21.119Z,99521.75
2024-02-04T14:20:41.983Z,99520.28
2024-02-04T14:26:04.030Z,99513.81
2024-02-04T14:31:25.607Z,99535.41
2024-02-04T14:36:46.818Z,99507.66
2024-02-04T14:42:07.586Z,99524.72
2024-02-04T14:47:28.803Z,99515.44
2024-02-04T14:52:49.812Z,99517.16
2024-02-04T14:58:11.020Z,99499.19
2024-02-04T15:03:32.710Z,99502.88
2024-02-04T15:08:53.947Z,99499.97
2024-02-04T15:14:15.080Z,99481.63
2024-02-04T15:19:37.669Z,99493.09
2024-02-04T15:24:59.269Z,99492.31
2024-02-04T15:30:21.346Z,99461.84
2024-02-04T15:35:42.864Z,99483.94
2024-02-04T15:41:04.045Z,99496.75
2024-02-04T15:46:25.121Z,99471.94
2024-02-04T15:51:47.028Z,99459.72
2024-02-04T15:57:09.555Z,99472.34
2024-02-04T16:02:32.246Z,99463.25
2024-02-04T16:07:54.155Z,99463.94
2024-02-04T16:13:15.655Z,99453.97
2024-02-04T16:18:36.954Z,99471.84
2024-02-04T16:23:57.996Z,99466.91
2024-02-04T16:29:19.285Z,99453.75
2024-02-04T16:34:40.335Z,99471.84
2024-02-04T16:40:01.399Z,99460.44
2024-02-04T16:45:22.472Z,99458.50
2024-02-04T16:50:43.305Z,99451.25
2024-02-04T16:56:04.342Z,99455.78
2024-02-04T17:01:27.064Z,99449.84
2024-02-04T17:06:48.432Z,99427.16
2024-02-04T17:12:10.030Z,99442.56
2024-02-04T17:17:32.842Z,99433.16
2024-02-04T17:22:57.896Z,99431.53
2024-02-04T17:28:19.359Z,99450.72
2024-02-04T17:33:40.996Z,99417.13
2024-02-04T17:39:06.209Z,99440.06
2024-02-04T17:44:27.210Z,99432.06
2024-02-04T17:49:48.537Z,99436.38
2024-02-04T17:55:09.539Z,99441.53
2024-02-04T18:00:30.460Z,99423.06
2024-02-04T18:05:51.675Z,99424.75
2024-02-04T18:11:19.520Z,99410.50
2024-02-04T18:16:40.725Z,99433.50
2024-02-04T18:22:02.101Z,99433.44
2024-02-04T18:27:24.337Z,99408.94
2024-02-04T18:32:45.969Z,99418.53
2024-02-04T18:38:07.617Z,99407.84
2024-02-04T18:43:28.477Z,99391.44
2024-02-04T18:48:49.956Z,99387.28
2024-02-04T18:54:11.108Z,99390.06
2024-02-04T18:59:31.856Z,99405.78
2024-02-04T19:04:52.970Z,99376.41
2024-02-04T19:10:14.473Z,99385.41
2024-02-04T19:15:35.799Z,99384.69
2024-02-04T19:20:56.661Z,99400.56
2024-02-04T19:26:18.572Z,99375.13
2024-02-04T19:31:39.884Z,99386.84
2024-02-04T19:37:00.779Z,99376.38
2024-02-04T19:42:23.992Z,99373.25
2024-02-04T19:48:11.668Z,99378.28
2024-02-04T19:53:33.079Z,99354.53
2024-02-04T19:58:53.842Z,99356.47
2024-02-04T20:04:15.154Z,99363.47
2024-02-04T20:09:36.371Z,99370.81
2024-02-04T20:14:57.312Z,99360.63
2024-02-04T20:20:19.908Z,99363.88
2024-02-04T20:25:43.816Z,99334.38
2024-02-04T20:31:05.995Z,99323.81
2024-02-04T20:36:27.379Z,99337.44
2024-02-04T20:41:49.046Z,99343.53
2024-02-04T20:47:10.274Z,99343.31
2024-02-04T20:52:31.063Z,99354.91
2024-02-04T20:57:53.458Z,99342.59
2024-02-04T21:03:15.398Z,99339.47
2024-02-04T21:08:36.050Z,99343.94
2024-02-04T21:13:59.155Z,99317.59
2024-02-04T21:19:20.388Z,99332.94
2024-02-04T21:24:41.404Z,99325.78
2024-02-04T21:30:02.157Z,99308.56
2024-02-04T21:35:23.822Z,99309.66
2024-02-04T21:40:46.698Z,99294.91
2024-02-04T21:46:08.652Z,99283.81
2024-02-04T21:51:29.689Z,99285.53
2024-02-04T21:56:51.011Z,99287.03
2024-02-04T22:02:13.856Z,99296.53
2024-02-04T22:07:34.775Z,99296.31
2024-02-04T22:12:57.145Z,99270.13
2024-02-04T22:18:18.589Z,99263.69
2024-02-04T22:23:39.658Z,99277.06
2024-02-04T22:29:08.523Z,99283.91
2024-02-04T22:34:30.221Z,99266.41
2024-02-04T22:39:51.045Z,99249.88
2024-02-04T22:45:12.611Z,99241.91
2024-02-04T22:50:33.327Z,99244.03
2024-02-04T22:55:54.960Z,99233.94
2024-02-04T23:01:16.193Z,99219.34
2024-02-04T23:06:37.481Z,99238.88
2024-02-04T23:11:59.269Z,99250.88
2024-02-04T23:17:20.434Z,99238.97
2024-02-04T23:22:41.359Z,99221.97
2024-02-04T23:28:02.177Z,99236.56
2024-02-04T23:33:24.158Z,99221.47
2024-02-04T23:38:45.528Z,99219.34
2024-02-04T23:44:06.622Z,99211.28
2024-02-04T23:49:27.568Z,99227.69
2024-02-04T23:54:48.817Z,99225.31
